createdAt,value
2023-02-13T00:04:24.401Z,102502.75
2023-02-13T00:09:25.646Z,102493.31
2023-02-13T00:14:26.848Z,102493.75
2023-02-13T00:19:28.014Z,102494.19
2023-02-13T00:24:29.261Z,102486.31
2023-02-13T00:29:30.464Z,102481.31
2023-02-13T00:34:31.652Z,102479.94
2023-02-13T00:39:32.884Z,102477.53
2023-02-13T00:44:34.145Z,102474.09
2023-02-13T00:49:35.323Z,102467.28
2023-02-13T00:54:36.551Z,102465.91
2023-02-13T00:59:37.812Z,102463.72
2023-02-13T01:04:39.033Z,102461.31
2023-02-13T01:09:40.277Z,102464.97
2023-02-13T01:14:41.498Z,102469.41
2023-02-13T01:19:42.755Z,102470.41
2023-02-13T01:24:43.985Z,102462.78
2023-02-13T01:29:45.160Z,102452.75
2023-02-13T01:34:46.373Z,102452.97
2023-02-13T01:39:47.783Z,102460.03
2023-02-13T01:44:49.044Z,102455.00
2023-02-13T01:49:50.298Z,102457.84
2023-02-13T01:54:52.974Z,102449.41
2023-02-13T01:59:54.133Z,102449.84
2023-02-13T02:04:55.383Z,102449.25
2023-02-13T02:09:56.567Z,102459.72
2023-02-13T02:14:57.775Z,102450.28
2023-02-13T02:19:59.003Z,102464.38
2023-02-13T02:25:00.588Z,102458.34
2023-02-13T02:30:01.795Z,102449.13
2023-02-13T02:35:03.054Z,102449.13
2023-02-13T02:40:04.357Z,102454.34
2023-02-13T02:45:05.819Z,102447.50
2023-02-13T02:50:07.042Z,102403.78
2023-02-13T02:55:08.356Z,102452.75
2023-02-13T03:00:28.562Z,102452.16
2023-02-13T03:05:48.474Z,102451.16
2023-02-13T03:11:08.285Z,102447.94
2023-02-13T03:16:28.173Z,102455.56
2023-02-13T03:21:47.918Z,102455.78
2023-02-13T03:26:51.965Z,102446.94
2023-02-13T03:31:54.104Z,102453.16
2023-02-13T03:37:14.198Z,102458.66
2023-02-13T03:42:15.440Z,102455.78
2023-02-13T03:47:16.646Z,102453.41
2023-02-13T03:52:18.003Z,102453.63
2023-02-13T03:57:37.790Z,102448.59
2023-02-13T04:02:38.991Z,102447.78
2023-02-13T04:07:40.198Z,102445.63
2023-02-13T04:12:41.444Z,102445.03
2023-02-13T04:17:42.619Z,102464.00
2023-02-13T04:22:43.853Z,102461.03
2023-02-13T04:27:45.057Z,102457.81
2023-02-13T04:32:46.338Z,102462.47
2023-02-13T04:37:47.546Z,102463.47
2023-02-13T04:42:49.158Z,102465.13
2023-02-13T04:47:50.452Z,102454.31
2023-02-13T04:52:51.704Z,102454.72
2023-02-13T04:57:53.490Z,102454.00
2023-02-13T05:02:54.721Z,102451.81
2023-02-13T05:07:55.949Z,102449.66
2023-02-13T05:12:57.190Z,102446.09
2023-02-13T05:17:58.425Z,102455.00
2023-02-13T05:23:18.409Z,102453.69
2023-02-13T05:28:38.226Z,102454.72
2023-02-13T05:33:39.548Z,102464.44
2023-02-13T05:38:41.243Z,102453.97
2023-02-13T05:43:42.485Z,102459.41
2023-02-13T05:48:43.728Z,102466.88
2023-02-13T05:53:44.958Z,102467.91
2023-02-13T05:58:47.402Z,102469.31
2023-02-13T06:03:48.703Z,102466.69
2023-02-13T06:08:49.963Z,102461.72
2023-02-13T06:13:51.154Z,102468.63
2023-02-13T06:18:52.380Z,102460.28
2023-02-13T06:23:53.651Z,102460.16
2023-02-13T06:28:54.815Z,102461.00
2023-02-13T06:33:56.101Z,102462.66
2023-02-13T06:38:57.337Z,102459.88
2023-02-13T06:43:58.600Z,102456.09
2023-02-13T06:48:59.828Z,102459.09
2023-02-13T06:54:01.099Z,102462.31
2023-02-13T06:59:02.298Z,102459.91
2023-02-13T07:04:03.459Z,102462.53
2023-02-13T07:09:04.679Z,102468.13
2023-02-13T07:14:05.923Z,102462.31
2023-02-13T07:19:07.183Z,102463.75
2023-02-13T07:24:08.401Z,102469.94
2023-02-13T07:29:11.952Z,102472.94
2023-02-13T07:34:13.420Z,102470.53
2023-02-13T07:39:14.713Z,102467.34
2023-02-13T07:44:15.882Z,102473.78
2023-02-13T07:49:17.036Z,102484.59
2023-02-13T07:54:18.293Z,102470.13
2023-02-13T07:59:19.499Z,102477.34
2023-02-13T08:04:20.728Z,102471.53
2023-02-13T08:09:41.129Z,102470.28
2023-02-13T08:14:42.328Z,102474.06
2023-02-13T08:19:43.550Z,102478.47
2023-02-13T08:24:44.754Z,102479.25
2023-02-13T08:29:45.931Z,102483.66
2023-02-13T08:34:47.185Z,102472.94
2023-02-13T08:39:48.436Z,102476.88
2023-02-13T08:44:49.698Z,102483.66
2023-02-13T08:49:50.882Z,102483.28
2023-02-13T08:54:52.070Z,102478.59
2023-02-13T08:59:53.246Z,102478.06
2023-02-13T09:04:54.412Z,102484.38
2023-02-13T09:09:55.656Z,102486.28
2023-02-13T09:14:56.932Z,102477.91
2023-02-13T09:19:58.124Z,102471.88
2023-02-13T09:25:01.002Z,102471.94
2023-02-13T09:30:02.236Z,102478.78
2023-02-13T09:35:03.586Z,102474.78
2023-02-13T09:40:04.750Z,102471.75
2023-02-13T09:45:05.965Z,102476.22
2023-02-13T09:50:07.238Z,102464.94
2023-02-13T09:55:08.513Z,102468.78
2023-02-13T10:00:13.267Z,102474.09
2023-02-13T10:05:14.584Z,102471.91
2023-02-13T10:10:18.128Z,102465.63
2023-02-13T10:15:19.316Z,102457.81
2023-02-13T10:20:20.560Z,102460.72
2023-02-13T10:25:21.739Z,102469.00
2023-02-13T10:30:22.942Z,102460.38
2023-02-13T10:35:24.116Z,102465.34
2023-02-13T10:40:25.316Z,102460.88
2023-02-13T10:45:26.591Z,102460.06
2023-02-13T10:50:27.844Z,102460.06
2023-02-13T10:55:29.055Z,102459.22
2023-02-13T11:00:31.336Z,102445.50
2023-02-13T11:05:32.565Z,102441.78
2023-02-13T11:10:33.768Z,102438.31
2023-02-13T11:15:35.013Z,102429.81
2023-02-13T11:20:36.355Z,102414.69
2023-02-13T11:25:37.560Z,102409.91
2023-02-13T11:30:38.781Z,102412.09
2023-02-13T11:35:40.014Z,102403.03
2023-02-13T11:40:41.732Z,102399.00
2023-02-13T11:45:43.022Z,102388.94
2023-02-13T11:50:46.235Z,102378.94
2023-02-13T11:55:47.472Z,102376.25
2023-02-13T12:00:48.680Z,102373.28
2023-02-13T12:05:49.905Z,102367.53
2023-02-13T12:10:51.108Z,102361.44
2023-02-13T12:15:52.288Z,102361.97
2023-02-13T12:20:53.530Z,102356.63
2023-02-13T12:25:54.737Z,102346.97
2023-02-13T12:30:55.986Z,102334.16
2023-02-13T12:35:57.384Z,102336.09
2023-02-13T12:40:59.205Z,102335.28
2023-02-13T12:46:00.799Z,102324.44
2023-02-13T12:51:02.051Z,102327.59
2023-02-13T12:56:05.774Z,102322.88
2023-02-13T13:01:07.016Z,102302.66
2023-02-13T13:06:12.155Z,102299.31
2023-02-13T13:11:13.775Z,102306.47
2023-02-13T13:16:16.750Z,102297.31
2023-02-13T13:21:18.272Z,102293.69
2023-02-13T13:26:21.296Z,102287.44
2023-02-13T13:31:24.194Z,102279.34
2023-02-13T13:36:25.495Z,102272.19
2023-02-13T13:41:26.663Z,102275.13
2023-02-13T13:46:27.929Z,102273.09
2023-02-13T13:51:30.622Z,102271.28
2023-02-13T13:56:31.839Z,102271.56
2023-02-13T14:01:33.143Z,102262.16
2023-02-13T14:06:34.371Z,102252.47
2023-02-13T14:11:35.579Z,102261.44
2023-02-13T14:16:36.817Z,102245.63
2023-02-13T14:21:38.027Z,102246.47
2023-02-13T14:26:39.197Z,102244.69
2023-02-13T14:31:40.565Z,102244.75
2023-02-13T14:36:42.024Z,102249.88
2023-02-13T14:41:43.304Z,102246.09
2023-02-13T14:46:47.986Z,102248.28
2023-02-13T14:51:50.063Z,102239.16
2023-02-13T14:56:51.227Z,102236.03
2023-02-13T15:01:53.060Z,102239.03
2023-02-13T15:06:54.405Z,102236.25
2023-02-13T15:11:55.584Z,102231.03
2023-02-13T15:16:56.882Z,102231.13
2023-02-13T15:21:58.090Z,102225.34
2023-02-13T15:26:59.671Z,102229.09
2023-02-13T15:32:01.011Z,102227.81
2023-02-13T15:37:03.369Z,102225.47
2023-02-13T15:42:04.567Z,102228.66
2023-02-13T15:47:07.370Z,102225.22
2023-02-13T15:52:08.722Z,102228.91
2023-02-13T15:57:09.894Z,102228.91
2023-02-13T16:02:11.151Z,102219.09
2023-02-13T16:07:12.449Z,102226.75
2023-02-13T16:12:13.626Z,102214.81
2023-02-13T16:17:14.906Z,102219.28
2023-02-13T16:22:16.193Z,102229.19
2023-02-13T16:27:17.444Z,102228.03
2023-02-13T16:32:18.738Z,102228.09
2023-02-13T16:37:19.959Z,102232.31
2023-02-13T16:42:21.181Z,102230.75
2023-02-13T16:47:22.377Z,102225.50
2023-02-13T16:52:26.217Z,102235.50
2023-02-13T16:57:27.506Z,102239.41
2023-02-13T17:02:28.763Z,102251.34
2023-02-13T17:07:30.053Z,102257.19
2023-02-13T17:12:31.342Z,102259.00
2023-02-13T17:17:32.567Z,102266.66
2023-02-13T17:22:33.825Z,102270.41
2023-02-13T17:27:35.059Z,102272.00
2023-02-13T17:32:36.277Z,102273.38
2023-02-13T17:37:43.113Z,102269.66
2023-02-13T17:42:44.370Z,102277.13
2023-02-13T17:47:45.613Z,102270.31
2023-02-13T17:52:47.550Z,102272.31
2023-02-13T17:57:48.725Z,102275.25
2023-02-13T18:02:49.921Z,102275.66
2023-02-13T18:07:51.164Z,102277.53
2023-02-13T18:12:52.316Z,102288.16
2023-02-13T18:17:53.510Z,102277.34
2023-02-13T18:22:54.637Z,102275.84
2023-02-13T18:27:55.863Z,102279.88
2023-02-13T18:32:58.775Z,102285.69
2023-02-13T18:37:59.931Z,102280.09
2023-02-13T18:43:01.098Z,102284.66
2023-02-13T18:48:02.878Z,102287.50
2023-02-13T18:53:04.057Z,102292.06
2023-02-13T18:58:05.270Z,102295.78
2023-02-13T19:03:06.419Z,102289.41
2023-02-13T19:08:07.647Z,102294.97
2023-02-13T19:13:08.820Z,102292.34
2023-02-13T19:18:09.999Z,102285.97
2023-02-13T19:23:11.259Z,102284.66
2023-02-13T19:28:12.394Z,102294.84
2023-02-13T19:33:13.576Z,102304.28
2023-02-13T19:38:15.758Z,102303.03
2023-02-13T19:43:16.941Z,102295.19
2023-02-13T19:48:18.081Z,102303.16
2023-02-13T19:53:19.356Z,102294.97
2023-02-13T19:58:20.572Z,102301.88
2023-02-13T20:03:21.812Z,102292.31
2023-02-13T20:08:22.957Z,102289.25
2023-02-13T20:13:24.193Z,102298.34
2023-02-13T20:18:25.362Z,102303.31
2023-02-13T20:23:26.535Z,102301.38
2023-02-13T20:28:27.833Z,102303.28
2023-02-13T20:33:28.974Z,102298.22
2023-02-13T20:38:30.167Z,102303.91
2023-02-13T20:43:32.618Z,102304.81
2023-02-13T20:48:33.750Z,102302.28
2023-02-13T20:53:34.973Z,102295.44
2023-02-13T20:58:36.138Z,102299.53
2023-02-13T21:03:37.343Z,102296.16
2023-02-13T21:08:38.553Z,102299.13
2023-02-13T21:13:40.150Z,102306.00
2023-02-13T21:18:41.296Z,102304.34
2023-02-13T21:23:42.423Z,102306.00
2023-02-13T21:28:43.598Z,102304.50
2023-02-13T21:33:44.787Z,102302.53
2023-02-13T21:38:45.967Z,102292.13
2023-02-13T21:43:47.118Z,102300.63
2023-02-13T21:48:48.267Z,102299.91
2023-02-13T21:53:49.405Z,102290.09
2023-02-13T21:58:50.637Z,102283.06
2023-02-13T22:03:51.809Z,102280.31
2023-02-13T22:08:53.016Z,102280.38
2023-02-13T22:13:54.156Z,102289.22
2023-02-13T22:18:55.394Z,102283.63
2023-02-13T22:23:56.546Z,102276.06
2023-02-13T22:28:57.713Z,102277.09
2023-02-13T22:34:03.920Z,102275.13
2023-02-13T22:39:06.138Z,102282.63
2023-02-13T22:44:07.321Z,102291.78
2023-02-13T22:49:08.586Z,102293.28
2023-02-13T22:54:09.763Z,102290.56
2023-02-13T22:59:10.910Z,102282.56
2023-02-13T23:04:12.600Z,102276.38
2023-02-13T23:09:13.848Z,102276.16
2023-02-13T23:14:15.026Z,102288.63
2023-02-13T23:19:16.280Z,102285.41
2023-02-13T23:24:17.462Z,102290.06
2023-02-13T23:29:18.682Z,102277.41
2023-02-13T23:34:19.970Z,102285.00
2023-02-13T23:39:21.345Z,102287.78
2023-02-13T23:44:22.478Z,102282.81
2023-02-13T23:49:23.682Z,102289.28
2023-02-13T23:54:24.991Z,102285.31
2023-02-13T23:59:26.162Z,102292.13
